IBE03KE KJFK-LEMD
Flight info
| Callsign | IBE03KE |
|---|---|
| Flight time | N/A |
| Altitude | 39000 |
| Route | MERIT DCT HFD DCT PUT DCT BRADD N99B SUPRY/M083F390 DCT 46N050W 46N040W 43N030W/M083F410 41N020W DCT ERPES DCT VEDEL DCT DIGAL/N0470F430 DCT RAKOD DCT OGERO DCT ROLDO Z409 TLD |
| Aircraft | A359/H-SDE2E3GHIJ3J4J5LM1ORWXY/LB1D1 |
Departure
| Time | 2026-05-07 11:18 |
|---|---|
| Airport | John F. Kennedy International Airport (KJFK) |
Arrival
| Time | N/A |
|---|---|
| Airport | Adolfo Suárez Madrid–Barajas Airport (LEMD) |
| Time | Latitude | Longitude | Altitude | Speed | Heading |
|---|---|---|---|---|---|
| 2026-05-07 10:35 | 40.64787 | -73.79352 | 30 ft | 0 kts | 151° |
| 2026-05-07 11:01 | 40.64789 | -73.79354 | 20 ft | 3 kts | 151° |
| 2026-05-07 11:01 | 40.64811 | -73.79370 | 29 ft | 2 kts | 151° |
| 2026-05-07 11:01 | 40.64831 | -73.79383 | 28 ft | 4 kts | 175° |
| 2026-05-07 11:01 | 40.64849 | -73.79373 | 28 ft | 3 kts | 240° |
| 2026-05-07 11:02 | 40.64862 | -73.79344 | 27 ft | 4 kts | 241° |
| 2026-05-07 11:02 | 40.64864 | -73.79338 | 27 ft | 0 kts | 241° |
| 2026-05-07 11:07 | 40.64851 | -73.79367 | 28 ft | 6 kts | 240° |
| 2026-05-07 11:07 | 40.64827 | -73.79424 | 28 ft | 8 kts | 240° |
| 2026-05-07 11:07 | 40.64795 | -73.79499 | 30 ft | 11 kts | 240° |
| 2026-05-07 11:07 | 40.64756 | -73.79591 | 30 ft | 13 kts | 241° |
| 2026-05-07 11:08 | 40.64710 | -73.79695 | 30 ft | 12 kts | 229° |
| 2026-05-07 11:08 | 40.64669 | -73.79702 | 30 ft | 7 kts | 167° |
| 2026-05-07 11:08 | 40.64605 | -73.79654 | 30 ft | 12 kts | 148° |
| 2026-05-07 11:08 | 40.64526 | -73.79605 | 30 ft | 12 kts | 167° |
| 2026-05-07 11:09 | 40.64441 | -73.79594 | 30 ft | 13 kts | 176° |
| 2026-05-07 11:09 | 40.64352 | -73.79595 | 31 ft | 13 kts | 183° |
| 2026-05-07 11:09 | 40.64257 | -73.79603 | 31 ft | 15 kts | 183° |
| 2026-05-07 11:09 | 40.64148 | -73.79607 | 31 ft | 13 kts | 171° |
| 2026-05-07 11:10 | 40.64089 | -73.79535 | 29 ft | 16 kts | 123° |
| 2026-05-07 11:10 | 40.64028 | -73.79405 | 29 ft | 18 kts | 121° |
| 2026-05-07 11:10 | 40.63958 | -73.79254 | 26 ft | 21 kts | 121° |
| 2026-05-07 11:10 | 40.63902 | -73.79129 | 28 ft | 11 kts | 121° |
| 2026-05-07 11:11 | 40.63861 | -73.79037 | 30 ft | 12 kts | 120° |
| 2026-05-07 11:11 | 40.63815 | -73.78934 | 30 ft | 14 kts | 120° |
| 2026-05-07 11:11 | 40.63765 | -73.78824 | 34 ft | 14 kts | 121° |
| 2026-05-07 11:11 | 40.63716 | -73.78717 | 35 ft | 14 kts | 121° |
| 2026-05-07 11:12 | 40.63659 | -73.78591 | 35 ft | 17 kts | 121° |
| 2026-05-07 11:12 | 40.63594 | -73.78450 | 35 ft | 19 kts | 121° |
| 2026-05-07 11:12 | 40.63519 | -73.78285 | 31 ft | 23 kts | 121° |
| 2026-05-07 11:12 | 40.63451 | -73.78134 | 31 ft | 17 kts | 121° |
| 2026-05-07 11:13 | 40.63387 | -73.77987 | 30 ft | 20 kts | 120° |
| 2026-05-07 11:13 | 40.63334 | -73.77866 | 32 ft | 11 kts | 120° |
| 2026-05-07 11:13 | 40.63292 | -73.77771 | 33 ft | 13 kts | 120° |
| 2026-05-07 11:13 | 40.63243 | -73.77662 | 34 ft | 15 kts | 121° |
| 2026-05-07 11:14 | 40.63189 | -73.77545 | 36 ft | 15 kts | 121° |
| 2026-05-07 11:14 | 40.63130 | -73.77414 | 35 ft | 18 kts | 121° |
| 2026-05-07 11:14 | 40.63060 | -73.77261 | 34 ft | 21 kts | 121° |
| 2026-05-07 11:14 | 40.62994 | -73.77116 | 30 ft | 17 kts | 126° |
| 2026-05-07 11:15 | 40.62949 | -73.77093 | 29 ft | 5 kts | 189° |
| 2026-05-07 11:15 | 40.62896 | -73.77127 | 30 ft | 9 kts | 209° |
| 2026-05-07 11:15 | 40.62830 | -73.77177 | 30 ft | 12 kts | 212° |
| 2026-05-07 11:15 | 40.62819 | -73.77218 | 30 ft | 4 kts | 289° |
| 2026-05-07 11:16 | 40.62829 | -73.77241 | 30 ft | 0 kts | 300° |
| 2026-05-07 11:16 | 40.62834 | -73.77252 | 30 ft | 8 kts | 299° |
| 2026-05-07 11:16 | 40.62958 | -73.77524 | 34 ft | 67 kts | 301° |
| 2026-05-07 11:17 | 40.63305 | -73.78291 | 29 ft | 126 kts | 301° |
| 2026-05-07 11:18 | 40.64340 | -73.80664 | 856 ft | 154 kts | 301° |
| 2026-05-07 11:18 | 40.64808 | -73.81872 | 1638 ft | 143 kts | 301° |
| 2026-05-07 11:18 | 40.65231 | -73.83047 | 2113 ft | 145 kts | 300° |
| 2026-05-07 11:18 | 40.65652 | -73.84285 | 2478 ft | 152 kts | 299° |
| 2026-05-07 11:19 | 40.66078 | -73.85582 | 2804 ft | 161 kts | 297° |
| 2026-05-07 11:19 | 40.66548 | -73.86962 | 3083 ft | 172 kts | 296° |
| 2026-05-07 11:19 | 40.66742 | -73.88561 | 3272 ft | 190 kts | 275° |
| 2026-05-07 11:19 | 40.66722 | -73.90410 | 3524 ft | 203 kts | 272° |
| 2026-05-07 11:20 | 40.66687 | -73.92292 | 4005 ft | 207 kts | 272° |
| 2026-05-07 11:20 | 40.66559 | -73.94168 | 4713 ft | 205 kts | 263° |
| 2026-05-07 11:20 | 40.66309 | -73.95999 | 5439 ft | 201 kts | 262° |
| 2026-05-07 11:20 | 40.65970 | -73.97766 | 6203 ft | 196 kts | 257° |
| 2026-05-07 11:21 | 40.65597 | -73.99464 | 6945 ft | 191 kts | 256° |
| 2026-05-07 11:21 | 40.65244 | -74.01161 | 7560 ft | 197 kts | 256° |
| 2026-05-07 11:21 | 40.65014 | -74.03028 | 7902 ft | 218 kts | 266° |
| 2026-05-07 11:21 | 40.65287 | -74.05072 | 8458 ft | 237 kts | 287° |
| 2026-05-07 11:22 | 40.66311 | -74.06833 | 9148 ft | 262 kts | 314° |
| 2026-05-07 11:22 | 40.68101 | -74.07736 | 9804 ft | 297 kts | 345° |
| 2026-05-07 11:22 | 40.70245 | -74.07286 | 10384 ft | 331 kts | 16° |
| 2026-05-07 11:22 | 40.72198 | -74.05526 | 11036 ft | 350 kts | 39° |
| 2026-05-07 11:23 | 40.73855 | -74.03117 | 11734 ft | 359 kts | 48° |
| 2026-05-07 11:23 | 40.75403 | -74.00495 | 12422 ft | 365 kts | 50° |
| 2026-05-07 11:23 | 40.76997 | -73.97804 | 12901 ft | 380 kts | 48° |
| 2026-05-07 11:23 | 40.78735 | -73.95067 | 13205 ft | 397 kts | 46° |
| 2026-05-07 11:24 | 40.80625 | -73.92300 | 13542 ft | 414 kts | 44° |
| 2026-05-07 11:24 | 40.82632 | -73.89512 | 14017 ft | 423 kts | 42° |
| 2026-05-07 11:24 | 40.84708 | -73.86704 | 14643 ft | 429 kts | 41° |
| 2026-05-07 11:24 | 40.86822 | -73.83874 | 15189 ft | 436 kts | 41° |
| 2026-05-07 11:25 | 40.88966 | -73.81009 | 15784 ft | 441 kts | 41° |
| 2026-05-07 11:25 | 40.91137 | -73.78098 | 16423 ft | 446 kts | 41° |
| 2026-05-07 11:25 | 40.93301 | -73.75186 | 17057 ft | 450 kts | 40° |
| 2026-05-07 11:25 | 40.95499 | -73.72217 | 17664 ft | 455 kts | 40° |
| 2026-05-07 11:26 | 40.97730 | -73.69196 | 18277 ft | 459 kts | 40° |